sensor_id;sensor_type;location;lat;lon;timestamp;P1;durP1;ratioP1;P2;durP2;ratioP2
68353;SDS011;55274;43.060;25.618;2023-05-07T00:01:53;8.48;;;6.15;;
68353;SDS011;55274;43.060;25.618;2023-05-07T00:04:19;8.82;;;5.85;;
68353;SDS011;55274;43.060;25.618;2023-05-07T00:06:45;7.47;;;5.15;;
68353;SDS011;55274;43.060;25.618;2023-05-07T00:09:11;11.38;;;5.70;;
68353;SDS011;55274;43.060;25.618;2023-05-07T00:11:37;8.68;;;5.32;;
68353;SDS011;55274;43.060;25.618;2023-05-07T00:14:03;9.43;;;4.53;;
68353;SDS011;55274;43.060;25.618;2023-05-07T00:16:29;10.95;;;5.07;;
68353;SDS011;55274;43.060;25.618;2023-05-07T00:18:54;11.18;;;5.05;;
68353;SDS011;55274;43.060;25.618;2023-05-07T00:21:20;10.32;;;5.13;;
68353;SDS011;55274;43.060;25.618;2023-05-07T00:23:46;9.90;;;5.88;;
68353;SDS011;55274;43.060;25.618;2023-05-07T00:26:12;8.55;;;4.80;;
68353;SDS011;55274;43.060;25.618;2023-05-07T00:28:38;8.95;;;5.43;;
68353;SDS011;55274;43.060;25.618;2023-05-07T00:31:04;6.80;;;4.80;;
68353;SDS011;55274;43.060;25.618;2023-05-07T00:33:30;7.85;;;4.50;;
68353;SDS011;55274;43.060;25.618;2023-05-07T00:35:55;7.00;;;4.55;;
68353;SDS011;55274;43.060;25.618;2023-05-07T00:38:21;8.82;;;4.65;;
68353;SDS011;55274;43.060;25.618;2023-05-07T00:40:47;8.57;;;3.95;;
68353;SDS011;55274;43.060;25.618;2023-05-07T00:43:13;10.90;;;5.47;;
68353;SDS011;55274;43.060;25.618;2023-05-07T00:45:38;8.77;;;5.60;;
68353;SDS011;55274;43.060;25.618;2023-05-07T00:48:04;9.65;;;5.03;;
68353;SDS011;55274;43.060;25.618;2023-05-07T00:50:30;10.73;;;5.03;;
68353;SDS011;55274;43.060;25.618;2023-05-07T00:52:57;8.57;;;5.28;;
68353;SDS011;55274;43.060;25.618;2023-05-07T00:55:24;9.20;;;5.20;;
68353;SDS011;55274;43.060;25.618;2023-05-07T00:57:50;9.75;;;4.85;;
68353;SDS011;55274;43.060;25.618;2023-05-07T01:00:16;11.20;;;5.30;;
68353;SDS011;55274;43.060;25.618;2023-05-07T01:02:43;8.25;;;5.13;;
68353;SDS011;55274;43.060;25.618;2023-05-07T01:05:09;11.38;;;5.50;;
68353;SDS011;55274;43.060;25.618;2023-05-07T01:07:40;10.38;;;5.40;;
68353;SDS011;55274;43.060;25.618;2023-05-07T01:10:07;10.75;;;5.72;;
68353;SDS011;55274;43.060;25.618;2023-05-07T01:12:34;14.25;;;5.93;;
68353;SDS011;55274;43.060;25.618;2023-05-07T01:15:02;27.63;;;6.68;;
68353;SDS011;55274;43.060;25.618;2023-05-07T01:17:28;19.67;;;6.43;;
68353;SDS011;55274;43.060;25.618;2023-05-07T01:19:54;22.23;;;7.95;;
68353;SDS011;55274;43.060;25.618;2023-05-07T01:22:28;25.17;;;6.82;;
68353;SDS011;55274;43.060;25.618;2023-05-07T01:25:04;17.05;;;6.07;;
68353;SDS011;55274;43.060;25.618;2023-05-07T01:27:31;12.18;;;5.53;;
68353;SDS011;55274;43.060;25.618;2023-05-07T01:29:58;18.17;;;5.65;;
68353;SDS011;55274;43.060;25.618;2023-05-07T01:32:48;12.90;;;5.70;;
68353;SDS011;55274;43.060;25.618;2023-05-07T01:35:15;19.20;;;6.43;;
68353;SDS011;55274;43.060;25.618;2023-05-07T01:37:44;18.17;;;6.38;;
68353;SDS011;55274;43.060;25.618;2023-05-07T01:40:12;13.50;;;6.20;;
68353;SDS011;55274;43.060;25.618;2023-05-07T01:42:39;18.13;;;6.60;;
68353;SDS011;55274;43.060;25.618;2023-05-07T01:45:06;13.35;;;5.65;;
68353;SDS011;55274;43.060;25.618;2023-05-07T01:47:32;19.38;;;6.60;;
68353;SDS011;55274;43.060;25.618;2023-05-07T01:49:59;11.15;;;6.72;;
68353;SDS011;55274;43.060;25.618;2023-05-07T01:52:26;22.08;;;5.47;;
68353;SDS011;55274;43.060;25.618;2023-05-07T01:54:52;16.73;;;6.47;;
68353;SDS011;55274;43.060;25.618;2023-05-07T01:57:18;25.35;;;8.43;;
68353;SDS011;55274;43.060;25.618;2023-05-07T01:59:44;20.50;;;7.00;;
68353;SDS011;55274;43.060;25.618;2023-05-07T02:02:10;28.88;;;7.80;;
68353;SDS011;55274;43.060;25.618;2023-05-07T02:04:36;37.75;;;8.77;;
68353;SDS011;55274;43.060;25.618;2023-05-07T02:07:01;33.00;;;7.28;;
68353;SDS011;55274;43.060;25.618;2023-05-07T02:09:27;20.33;;;6.70;;
68353;SDS011;55274;43.060;25.618;2023-05-07T02:11:53;25.45;;;6.85;;
68353;SDS011;55274;43.060;25.618;2023-05-07T02:14:18;23.63;;;7.05;;
68353;SDS011;55274;43.060;25.618;2023-05-07T02:16:45;23.45;;;7.55;;
68353;SDS011;55274;43.060;25.618;2023-05-07T02:19:11;30.30;;;8.32;;
68353;SDS011;55274;43.060;25.618;2023-05-07T02:21:37;71.75;;;9.98;;
68353;SDS011;55274;43.060;25.618;2023-05-07T02:24:02;52.53;;;9.27;;
68353;SDS011;55274;43.060;25.618;2023-05-07T02:26:28;69.25;;;10.20;;
68353;SDS011;55274;43.060;25.618;2023-05-07T02:28:54;95.57;;;10.98;;
68353;SDS011;55274;43.060;25.618;2023-05-07T02:31:20;75.75;;;11.93;;
68353;SDS011;55274;43.060;25.618;2023-05-07T02:33:47;57.17;;;11.40;;
68353;SDS011;55274;43.060;25.618;2023-05-07T02:36:12;76.03;;;13.27;;
68353;SDS011;55274;43.060;25.618;2023-05-07T02:38:38;50.00;;;12.75;;
68353;SDS011;55274;43.060;25.618;2023-05-07T02:41:04;82.35;;;12.10;;
68353;SDS011;55274;43.060;25.618;2023-05-07T02:43:30;47.08;;;10.60;;
68353;SDS011;55274;43.060;25.618;2023-05-07T02:46:05;68.93;;;12.85;;
68353;SDS011;55274;43.060;25.618;2023-05-07T02:48:32;110.22;;;14.75;;
68353;SDS011;55274;43.060;25.618;2023-05-07T02:50:58;133.70;;;16.52;;
68353;SDS011;55274;43.060;25.618;2023-05-07T02:53:25;112.55;;;13.85;;
68353;SDS011;55274;43.060;25.618;2023-05-07T02:55:57;77.78;;;12.40;;
68353;SDS011;55274;43.060;25.618;2023-05-07T02:58:24;56.47;;;11.77;;
68353;SDS011;55274;43.060;25.618;2023-05-07T03:00:51;129.50;;;15.23;;
68353;SDS011;55274;43.060;25.618;2023-05-07T03:03:17;99.55;;;15.80;;
68353;SDS011;55274;43.060;25.618;2023-05-07T03:05:43;126.35;;;14.98;;
68353;SDS011;55274;43.060;25.618;2023-05-07T03:08:08;81.05;;;13.35;;
68353;SDS011;55274;43.060;25.618;2023-05-07T03:10:35;76.55;;;10.98;;
68353;SDS011;55274;43.060;25.618;2023-05-07T03:13:01;89.50;;;14.60;;
68353;SDS011;55274;43.060;25.618;2023-05-07T03:15:28;73.72;;;13.45;;
68353;SDS011;55274;43.060;25.618;2023-05-07T03:17:53;135.57;;;16.02;;
68353;SDS011;55274;43.060;25.618;2023-05-07T03:20:19;105.15;;;13.15;;
68353;SDS011;55274;43.060;25.618;2023-05-07T03:22:45;70.28;;;13.68;;
68353;SDS011;55274;43.060;25.618;2023-05-07T03:25:11;74.30;;;14.00;;
68353;SDS011;55274;43.060;25.618;2023-05-07T03:27:37;70.47;;;14.15;;
68353;SDS011;55274;43.060;25.618;2023-05-07T03:30:03;53.17;;;11.20;;
68353;SDS011;55274;43.060;25.618;2023-05-07T03:32:29;63.08;;;10.50;;
68353;SDS011;55274;43.060;25.618;2023-05-07T03:34:55;47.95;;;13.27;;
68353;SDS011;55274;43.060;25.618;2023-05-07T03:37:21;79.82;;;13.77;;
68353;SDS011;55274;43.060;25.618;2023-05-07T03:39:47;42.83;;;9.85;;
68353;SDS011;55274;43.060;25.618;2023-05-07T03:42:12;31.98;;;9.98;;
68353;SDS011;55274;43.060;25.618;2023-05-07T03:44:38;34.20;;;10.07;;
68353;SDS011;55274;43.060;25.618;2023-05-07T03:47:04;83.13;;;13.75;;
68353;SDS011;55274;43.060;25.618;2023-05-07T03:49:30;86.68;;;13.88;;
68353;SDS011;55274;43.060;25.618;2023-05-07T03:51:55;39.65;;;9.23;;
68353;SDS011;55274;43.060;25.618;2023-05-07T03:54:21;29.35;;;8.80;;
68353;SDS011;55274;43.060;25.618;2023-05-07T03:56:47;34.42;;;9.85;;
68353;SDS011;55274;43.060;25.618;2023-05-07T03:59:13;58.47;;;11.25;;
68353;SDS011;55274;43.060;25.618;2023-05-07T04:01:39;53.55;;;9.80;;
68353;SDS011;55274;43.060;25.618;2023-05-07T04:04:05;43.15;;;10.18;;
68353;SDS011;55274;43.060;25.618;2023-05-07T04:06:31;47.67;;;9.10;;
68353;SDS011;55274;43.060;25.618;2023-05-07T04:08:57;71.28;;;11.75;;
68353;SDS011;55274;43.060;25.618;2023-05-07T04:11:23;64.10;;;11.85;;
68353;SDS011;55274;43.060;25.618;2023-05-07T04:13:49;56.90;;;11.15;;
68353;SDS011;55274;43.060;25.618;2023-05-07T04:16:15;38.38;;;10.80;;
68353;SDS011;55274;43.060;25.618;2023-05-07T04:18:40;76.43;;;13.65;;
68353;SDS011;55274;43.060;25.618;2023-05-07T04:21:13;66.88;;;13.38;;
68353;SDS011;55274;43.060;25.618;2023-05-07T04:23:43;46.88;;;12.50;;
68353;SDS011;55274;43.060;25.618;2023-05-07T04:26:09;66.53;;;13.10;;
68353;SDS011;55274;43.060;25.618;2023-05-07T04:28:34;50.67;;;12.38;;
68353;SDS011;55274;43.060;25.618;2023-05-07T04:31:01;57.53;;;13.77;;
68353;SDS011;55274;43.060;25.618;2023-05-07T04:33:27;41.90;;;12.48;;
68353;SDS011;55274;43.060;25.618;2023-05-07T04:35:52;49.15;;;12.80;;
68353;SDS011;55274;43.060;25.618;2023-05-07T04:38:18;50.85;;;12.82;;
68353;SDS011;55274;43.060;25.618;2023-05-07T04:40:44;37.70;;;12.02;;
68353;SDS011;55274;43.060;25.618;2023-05-07T04:43:10;49.33;;;13.27;;
68353;SDS011;55274;43.060;25.618;2023-05-07T04:45:36;47.05;;;13.88;;
68353;SDS011;55274;43.060;25.618;2023-05-07T04:48:02;41.15;;;12.25;;
68353;SDS011;55274;43.060;25.618;2023-05-07T04:50:28;34.88;;;11.43;;
68353;SDS011;55274;43.060;25.618;2023-05-07T04:52:53;46.03;;;13.00;;
68353;SDS011;55274;43.060;25.618;2023-05-07T04:55:19;52.35;;;14.85;;
68353;SDS011;55274;43.060;25.618;2023-05-07T04:57:45;68.13;;;18.00;;
68353;SDS011;55274;43.060;25.618;2023-05-07T05:00:11;63.78;;;18.55;;
68353;SDS011;55274;43.060;25.618;2023-05-07T05:02:39;57.05;;;16.23;;
68353;SDS011;55274;43.060;25.618;2023-05-07T05:05:06;58.30;;;15.43;;
68353;SDS011;55274;43.060;25.618;2023-05-07T05:07:32;46.85;;;15.80;;
68353;SDS011;55274;43.060;25.618;2023-05-07T05:09:58;43.83;;;16.08;;
68353;SDS011;55274;43.060;25.618;2023-05-07T05:12:24;40.67;;;15.45;;
68353;SDS011;55274;43.060;25.618;2023-05-07T05:14:50;39.83;;;15.73;;
68353;SDS011;55274;43.060;25.618;2023-05-07T05:17:16;41.50;;;15.23;;
68353;SDS011;55274;43.060;25.618;2023-05-07T05:19:41;42.13;;;14.90;;
68353;SDS011;55274;43.060;25.618;2023-05-07T05:22:07;43.67;;;16.55;;
68353;SDS011;55274;43.060;25.618;2023-05-07T05:24:33;43.45;;;16.77;;
68353;SDS011;55274;43.060;25.618;2023-05-07T05:26:59;31.48;;;12.45;;
68353;SDS011;55274;43.060;25.618;2023-05-07T05:29:26;26.52;;;10.52;;
68353;SDS011;55274;43.060;25.618;2023-05-07T05:31:52;20.95;;;9.65;;
68353;SDS011;55274;43.060;25.618;2023-05-07T05:34:17;22.38;;;7.63;;
68353;SDS011;55274;43.060;25.618;2023-05-07T05:36:44;17.23;;;7.63;;
68353;SDS011;55274;43.060;25.618;2023-05-07T05:39:11;16.45;;;6.60;;
68353;SDS011;55274;43.060;25.618;2023-05-07T05:41:36;18.85;;;9.15;;
68353;SDS011;55274;43.060;25.618;2023-05-07T05:44:02;17.95;;;8.40;;
68353;SDS011;55274;43.060;25.618;2023-05-07T05:46:28;16.60;;;8.77;;
68353;SDS011;55274;43.060;25.618;2023-05-07T05:48:54;20.33;;;9.93;;
68353;SDS011;55274;43.060;25.618;2023-05-07T05:51:20;20.50;;;10.35;;
68353;SDS011;55274;43.060;25.618;2023-05-07T05:53:46;24.38;;;12.32;;
68353;SDS011;55274;43.060;25.618;2023-05-07T05:56:12;36.03;;;16.45;;
68353;SDS011;55274;43.060;25.618;2023-05-07T05:58:38;35.60;;;16.92;;
68353;SDS011;55274;43.060;25.618;2023-05-07T06:01:04;46.17;;;20.27;;
68353;SDS011;55274;43.060;25.618;2023-05-07T06:03:30;36.53;;;16.75;;
68353;SDS011;55274;43.060;25.618;2023-05-07T06:05:57;42.05;;;16.95;;
68353;SDS011;55274;43.060;25.618;2023-05-07T06:08:23;35.80;;;16.35;;
68353;SDS011;55274;43.060;25.618;2023-05-07T06:10:49;19.90;;;10.52;;
68353;SDS011;55274;43.060;25.618;2023-05-07T06:13:15;23.85;;;12.13;;
68353;SDS011;55274;43.060;25.618;2023-05-07T06:15:40;31.27;;;12.80;;
68353;SDS011;55274;43.060;25.618;2023-05-07T06:18:06;22.48;;;11.95;;
68353;SDS011;55274;43.060;25.618;2023-05-07T06:20:32;23.48;;;11.70;;
68353;SDS011;55274;43.060;25.618;2023-05-07T06:22:58;26.73;;;12.55;;
68353;SDS011;55274;43.060;25.618;2023-05-07T06:25:23;14.90;;;7.78;;
68353;SDS011;55274;43.060;25.618;2023-05-07T06:27:49;21.63;;;9.95;;
68353;SDS011;55274;43.060;25.618;2023-05-07T06:30:15;14.25;;;6.57;;
68353;SDS011;55274;43.060;25.618;2023-05-07T06:32:41;29.73;;;8.13;;
68353;SDS011;55274;43.060;25.618;2023-05-07T06:35:06;10.98;;;5.50;;
68353;SDS011;55274;43.060;25.618;2023-05-07T06:37:32;8.95;;;5.68;;
68353;SDS011;55274;43.060;25.618;2023-05-07T06:39:58;19.38;;;6.35;;
68353;SDS011;55274;43.060;25.618;2023-05-07T06:42:24;11.63;;;6.20;;
68353;SDS011;55274;43.060;25.618;2023-05-07T06:44:50;11.95;;;5.93;;
68353;SDS011;55274;43.060;25.618;2023-05-07T06:47:15;9.65;;;5.25;;
68353;SDS011;55274;43.060;25.618;2023-05-07T06:49:41;9.30;;;5.22;;
68353;SDS011;55274;43.060;25.618;2023-05-07T06:52:07;10.88;;;4.97;;
68353;SDS011;55274;43.060;25.618;2023-05-07T06:54:33;11.73;;;6.28;;
68353;SDS011;55274;43.060;25.618;2023-05-07T06:56:59;18.70;;;9.88;;
68353;SDS011;55274;43.060;25.618;2023-05-07T06:59:24;19.33;;;9.25;;
68353;SDS011;55274;43.060;25.618;2023-05-07T07:01:50;7.35;;;4.32;;
68353;SDS011;55274;43.060;25.618;2023-05-07T07:04:16;21.13;;;5.60;;
68353;SDS011;55274;43.060;25.618;2023-05-07T07:06:41;18.23;;;5.72;;
68353;SDS011;55274;43.060;25.618;2023-05-07T07:09:07;11.13;;;5.32;;
68353;SDS011;55274;43.060;25.618;2023-05-07T07:11:33;27.58;;;7.60;;
68353;SDS011;55274;43.060;25.618;2023-05-07T07:13:59;14.38;;;6.47;;
68353;SDS011;55274;43.060;25.618;2023-05-07T07:16:25;12.50;;;6.25;;
68353;SDS011;55274;43.060;25.618;2023-05-07T07:18:51;18.75;;;5.75;;
68353;SDS011;55274;43.060;25.618;2023-05-07T07:21:17;12.25;;;5.53;;
68353;SDS011;55274;43.060;25.618;2023-05-07T07:23:42;12.52;;;5.10;;
68353;SDS011;55274;43.060;25.618;2023-05-07T07:26:08;12.88;;;6.05;;
68353;SDS011;55274;43.060;25.618;2023-05-07T07:28:34;11.80;;;5.25;;
68353;SDS011;55274;43.060;25.618;2023-05-07T07:30:59;6.70;;;3.55;;
68353;SDS011;55274;43.060;25.618;2023-05-07T07:33:25;10.25;;;4.15;;
68353;SDS011;55274;43.060;25.618;2023-05-07T07:35:51;6.82;;;3.00;;
68353;SDS011;55274;43.060;25.618;2023-05-07T07:38:17;7.95;;;3.00;;
68353;SDS011;55274;43.060;25.618;2023-05-07T07:40:43;11.80;;;3.17;;
68353;SDS011;55274;43.060;25.618;2023-05-07T07:43:09;19.35;;;3.47;;
68353;SDS011;55274;43.060;25.618;2023-05-07T07:45:35;16.98;;;3.20;;
68353;SDS011;55274;43.060;25.618;2023-05-07T07:48:00;5.10;;;2.83;;
68353;SDS011;55274;43.060;25.618;2023-05-07T07:50:26;5.10;;;1.83;;
68353;SDS011;55274;43.060;25.618;2023-05-07T07:52:52;3.38;;;1.90;;
68353;SDS011;55274;43.060;25.618;2023-05-07T07:55:19;4.28;;;1.80;;
68353;SDS011;55274;43.060;25.618;2023-05-07T07:57:48;4.38;;;1.75;;
68353;SDS011;55274;43.060;25.618;2023-05-07T08:00:14;18.25;;;2.25;;
68353;SDS011;55274;43.060;25.618;2023-05-07T08:02:41;5.90;;;2.10;;
68353;SDS011;55274;43.060;25.618;2023-05-07T08:05:07;7.97;;;1.48;;
68353;SDS011;55274;43.060;25.618;2023-05-07T08:07:33;4.45;;;1.42;;
68353;SDS011;55274;43.060;25.618;2023-05-07T08:09:59;3.60;;;1.20;;
68353;SDS011;55274;43.060;25.618;2023-05-07T08:12:25;8.98;;;1.85;;
68353;SDS011;55274;43.060;25.618;2023-05-07T08:14:50;4.72;;;1.67;;
68353;SDS011;55274;43.060;25.618;2023-05-07T08:17:16;5.28;;;1.75;;
68353;SDS011;55274;43.060;25.618;2023-05-07T08:19:42;1.55;;;1.20;;
68353;SDS011;55274;43.060;25.618;2023-05-07T08:22:09;10.88;;;1.92;;
68353;SDS011;55274;43.060;25.618;2023-05-07T08:24:35;7.75;;;1.30;;
68353;SDS011;55274;43.060;25.618;2023-05-07T08:27:01;3.20;;;1.30;;
68353;SDS011;55274;43.060;25.618;2023-05-07T08:29:27;4.70;;;1.10;;
68353;SDS011;55274;43.060;25.618;2023-05-07T08:31:53;6.13;;;1.52;;
68353;SDS011;55274;43.060;25.618;2023-05-07T08:34:19;2.22;;;1.00;;
68353;SDS011;55274;43.060;25.618;2023-05-07T08:36:47;11.75;;;1.58;;
68353;SDS011;55274;43.060;25.618;2023-05-07T08:39:14;8.05;;;1.30;;
68353;SDS011;55274;43.060;25.618;2023-05-07T08:41:43;2.97;;;1.27;;
68353;SDS011;55274;43.060;25.618;2023-05-07T08:44:14;26.00;;;2.35;;
68353;SDS011;55274;43.060;25.618;2023-05-07T08:46:41;12.73;;;1.92;;
68353;SDS011;55274;43.060;25.618;2023-05-07T08:49:11;6.18;;;1.25;;
68353;SDS011;55274;43.060;25.618;2023-05-07T08:51:37;2.63;;;1.20;;
68353;SDS011;55274;43.060;25.618;2023-05-07T08:54:03;3.45;;;1.77;;
68353;SDS011;55274;43.060;25.618;2023-05-07T08:56:30;4.25;;;1.20;;
68353;SDS011;55274;43.060;25.618;2023-05-07T08:58:56;12.48;;;2.00;;
68353;SDS011;55274;43.060;25.618;2023-05-07T09:01:23;3.97;;;1.20;;
68353;SDS011;55274;43.060;25.618;2023-05-07T09:03:49;5.40;;;1.10;;
68353;SDS011;55274;43.060;25.618;2023-05-07T09:06:16;2.55;;;1.10;;
68353;SDS011;55274;43.060;25.618;2023-05-07T09:08:48;2.35;;;0.93;;
68353;SDS011;55274;43.060;25.618;2023-05-07T09:11:19;6.78;;;1.42;;
68353;SDS011;55274;43.060;25.618;2023-05-07T09:13:48;1.85;;;0.82;;
68353;SDS011;55274;43.060;25.618;2023-05-07T09:16:17;3.17;;;1.13;;
68353;SDS011;55274;43.060;25.618;2023-05-07T09:18:46;4.75;;;1.45;;
68353;SDS011;55274;43.060;25.618;2023-05-07T09:21:17;3.03;;;1.05;;
68353;SDS011;55274;43.060;25.618;2023-05-07T09:23:43;4.45;;;1.30;;
68353;SDS011;55274;43.060;25.618;2023-05-07T09:26:09;4.18;;;1.50;;
68353;SDS011;55274;43.060;25.618;2023-05-07T09:28:40;9.77;;;1.10;;
68353;SDS011;55274;43.060;25.618;2023-05-07T09:31:07;11.18;;;1.48;;
68353;SDS011;55274;43.060;25.618;2023-05-07T09:33:33;8.18;;;1.55;;
68353;SDS011;55274;43.060;25.618;2023-05-07T09:36:06;4.00;;;1.50;;
68353;SDS011;55274;43.060;25.618;2023-05-07T09:38:33;17.08;;;2.40;;
68353;SDS011;55274;43.060;25.618;2023-05-07T09:43:33;9.30;;;1.63;;
68353;SDS011;55274;43.060;25.618;2023-05-07T09:46:03;3.95;;;1.60;;
68353;SDS011;55274;43.060;25.618;2023-05-07T09:48:40;3.55;;;1.50;;
68353;SDS011;55274;43.060;25.618;2023-05-07T09:51:25;3.97;;;1.58;;
68353;SDS011;55274;43.060;25.618;2023-05-07T09:53:56;2.72;;;1.45;;
68353;SDS011;55274;43.060;25.618;2023-05-07T09:56:26;5.05;;;1.67;;
68353;SDS011;55274;43.060;25.618;2023-05-07T09:58:52;9.93;;;1.92;;
68353;SDS011;55274;43.060;25.618;2023-05-07T10:01:21;6.45;;;1.50;;
68353;SDS011;55274;43.060;25.618;2023-05-07T10:03:48;4.13;;;1.40;;
68353;SDS011;55274;43.060;25.618;2023-05-07T10:06:16;4.07;;;1.30;;
68353;SDS011;55274;43.060;25.618;2023-05-07T10:08:42;8.90;;;1.73;;
68353;SDS011;55274;43.060;25.618;2023-05-07T10:11:09;6.97;;;1.42;;
68353;SDS011;55274;43.060;25.618;2023-05-07T10:13:35;3.25;;;1.23;;
68353;SDS011;55274;43.060;25.618;2023-05-07T10:16:03;3.22;;;1.50;;
68353;SDS011;55274;43.060;25.618;2023-05-07T10:18:30;2.33;;;1.52;;
68353;SDS011;55274;43.060;25.618;2023-05-07T10:21:02;3.42;;;1.48;;
68353;SDS011;55274;43.060;25.618;2023-05-07T10:23:33;9.18;;;1.95;;
68353;SDS011;55274;43.060;25.618;2023-05-07T10:26:00;7.78;;;1.60;;
68353;SDS011;55274;43.060;25.618;2023-05-07T10:28:29;6.40;;;2.33;;
68353;SDS011;55274;43.060;25.618;2023-05-07T10:34:20;2.97;;;1.33;;
68353;SDS011;55274;43.060;25.618;2023-05-07T10:36:51;7.90;;;1.60;;
68353;SDS011;55274;43.060;25.618;2023-05-07T10:39:17;3.75;;;1.35;;
68353;SDS011;55274;43.060;25.618;2023-05-07T10:41:45;5.93;;;1.83;;
68353;SDS011;55274;43.060;25.618;2023-05-07T10:44:11;8.82;;;1.90;;
68353;SDS011;55274;43.060;25.618;2023-05-07T10:52:17;3.65;;;1.50;;
68353;SDS011;55274;43.060;25.618;2023-05-07T10:54:48;3.72;;;1.98;;
68353;SDS011;55274;43.060;25.618;2023-05-07T10:57:39;3.78;;;1.40;;
68353;SDS011;55274;43.060;25.618;2023-05-07T11:05:24;7.88;;;1.80;;
68353;SDS011;55274;43.060;25.618;2023-05-07T11:07:56;3.75;;;1.70;;
68353;SDS011;55274;43.060;25.618;2023-05-07T11:10:26;2.47;;;1.30;;
68353;SDS011;55274;43.060;25.618;2023-05-07T11:13:42;5.15;;;1.50;;
68353;SDS011;55274;43.060;25.618;2023-05-07T11:16:21;4.68;;;2.17;;
68353;SDS011;55274;43.060;25.618;2023-05-07T11:18:55;6.18;;;1.52;;
68353;SDS011;55274;43.060;25.618;2023-05-07T11:24:04;3.25;;;1.60;;
68353;SDS011;55274;43.060;25.618;2023-05-07T11:26:32;3.78;;;1.65;;
68353;SDS011;55274;43.060;25.618;2023-05-07T11:29:15;4.05;;;1.55;;
68353;SDS011;55274;43.060;25.618;2023-05-07T11:31:51;5.25;;;1.40;;
68353;SDS011;55274;43.060;25.618;2023-05-07T11:34:21;2.92;;;1.50;;
68353;SDS011;55274;43.060;25.618;2023-05-07T11:36:48;2.92;;;1.52;;
68353;SDS011;55274;43.060;25.618;2023-05-07T11:42:28;3.40;;;1.52;;
68353;SDS011;55274;43.060;25.618;2023-05-07T11:44:55;3.13;;;1.55;;
68353;SDS011;55274;43.060;25.618;2023-05-07T11:47:21;15.77;;;2.33;;
68353;SDS011;55274;43.060;25.618;2023-05-07T11:49:50;6.47;;;1.88;;
68353;SDS011;55274;43.060;25.618;2023-05-07T11:52:17;34.25;;;3.70;;
68353;SDS011;55274;43.060;25.618;2023-05-07T11:54:51;6.53;;;2.08;;
68353;SDS011;55274;43.060;25.618;2023-05-07T11:57:18;3.65;;;1.50;;
68353;SDS011;55274;43.060;25.618;2023-05-07T11:59:43;33.60;;;2.97;;
68353;SDS011;55274;43.060;25.618;2023-05-07T12:02:10;9.05;;;2.05;;
68353;SDS011;55274;43.060;25.618;2023-05-07T12:04:36;5.32;;;1.50;;
68353;SDS011;55274;43.060;25.618;2023-05-07T12:07:03;16.15;;;2.40;;
68353;SDS011;55274;43.060;25.618;2023-05-07T12:09:29;8.00;;;2.08;;
68353;SDS011;55274;43.060;25.618;2023-05-07T12:11:57;5.63;;;1.38;;
68353;SDS011;55274;43.060;25.618;2023-05-07T12:14:30;3.70;;;1.60;;
68353;SDS011;55274;43.060;25.618;2023-05-07T12:16:57;5.90;;;1.60;;
68353;SDS011;55274;43.060;25.618;2023-05-07T12:24:22;9.95;;;1.70;;
68353;SDS011;55274;43.060;25.618;2023-05-07T12:26:48;8.02;;;1.80;;
68353;SDS011;55274;43.060;25.618;2023-05-07T12:29:14;4.15;;;1.60;;
68353;SDS011;55274;43.060;25.618;2023-05-07T12:31:43;3.83;;;1.88;;
68353;SDS011;55274;43.060;25.618;2023-05-07T12:34:12;2.85;;;1.60;;
68353;SDS011;55274;43.060;25.618;2023-05-07T12:36:38;12.07;;;2.30;;
68353;SDS011;55274;43.060;25.618;2023-05-07T12:39:05;3.75;;;1.80;;
68353;SDS011;55274;43.060;25.618;2023-05-07T12:41:35;2.92;;;1.60;;
68353;SDS011;55274;43.060;25.618;2023-05-07T12:44:18;9.85;;;1.77;;
68353;SDS011;55274;43.060;25.618;2023-05-07T12:46:44;7.07;;;1.88;;
68353;SDS011;55274;43.060;25.618;2023-05-07T12:49:11;6.30;;;2.15;;
68353;SDS011;55274;43.060;25.618;2023-05-07T12:51:37;3.65;;;1.52;;
68353;SDS011;55274;43.060;25.618;2023-05-07T12:54:03;5.25;;;1.52;;
68353;SDS011;55274;43.060;25.618;2023-05-07T12:56:35;2.53;;;1.80;;
68353;SDS011;55274;43.060;25.618;2023-05-07T12:59:01;9.07;;;1.90;;
68353;SDS011;55274;43.060;25.618;2023-05-07T13:01:30;5.20;;;1.70;;
68353;SDS011;55274;43.060;25.618;2023-05-07T13:04:02;4.53;;;2.10;;
68353;SDS011;55274;43.060;25.618;2023-05-07T13:06:29;3.00;;;1.50;;
68353;SDS011;55274;43.060;25.618;2023-05-07T13:08:56;2.78;;;1.50;;
68353;SDS011;55274;43.060;25.618;2023-05-07T13:11:21;8.18;;;1.85;;
68353;SDS011;55274;43.060;25.618;2023-05-07T13:13:48;2.33;;;1.48;;
68353;SDS011;55274;43.060;25.618;2023-05-07T13:16:13;3.00;;;1.20;;
68353;SDS011;55274;43.060;25.618;2023-05-07T13:18:39;9.38;;;2.25;;
68353;SDS011;55274;43.060;25.618;2023-05-07T13:21:06;8.02;;;2.03;;
68353;SDS011;55274;43.060;25.618;2023-05-07T13:23:31;6.32;;;1.77;;
68353;SDS011;55274;43.060;25.618;2023-05-07T13:25:57;12.65;;;2.85;;
68353;SDS011;55274;43.060;25.618;2023-05-07T13:28:23;2.40;;;1.50;;
68353;SDS011;55274;43.060;25.618;2023-05-07T13:30:49;4.43;;;1.73;;
68353;SDS011;55274;43.060;25.618;2023-05-07T13:33:17;3.38;;;1.77;;
68353;SDS011;55274;43.060;25.618;2023-05-07T13:35:43;4.85;;;1.73;;
68353;SDS011;55274;43.060;25.618;2023-05-07T13:38:09;4.07;;;1.67;;
68353;SDS011;55274;43.060;25.618;2023-05-07T13:40:35;8.88;;;2.10;;
68353;SDS011;55274;43.060;25.618;2023-05-07T13:43:01;4.50;;;1.63;;
68353;SDS011;55274;43.060;25.618;2023-05-07T13:45:29;12.40;;;2.58;;
68353;SDS011;55274;43.060;25.618;2023-05-07T13:47:56;9.07;;;1.80;;
68353;SDS011;55274;43.060;25.618;2023-05-07T13:50:22;8.38;;;1.75;;
68353;SDS011;55274;43.060;25.618;2023-05-07T13:52:48;4.60;;;1.70;;
68353;SDS011;55274;43.060;25.618;2023-05-07T13:55:20;5.93;;;1.50;;
68353;SDS011;55274;43.060;25.618;2023-05-07T13:57:46;3.15;;;1.52;;
68353;SDS011;55274;43.060;25.618;2023-05-07T14:00:13;3.00;;;1.40;;
68353;SDS011;55274;43.060;25.618;2023-05-07T14:02:39;7.57;;;1.50;;
68353;SDS011;55274;43.060;25.618;2023-05-07T14:05:05;2.38;;;1.65;;
68353;SDS011;55274;43.060;25.618;2023-05-07T14:07:32;4.88;;;2.08;;
68353;SDS011;55274;43.060;25.618;2023-05-07T14:09:57;7.03;;;1.67;;
68353;SDS011;55274;43.060;25.618;2023-05-07T14:12:23;5.60;;;1.85;;
68353;SDS011;55274;43.060;25.618;2023-05-07T14:14:52;1.70;;;1.40;;
68353;SDS011;55274;43.060;25.618;2023-05-07T14:17:18;6.65;;;1.52;;
68353;SDS011;55274;43.060;25.618;2023-05-07T14:19:45;4.15;;;1.63;;
68353;SDS011;55274;43.060;25.618;2023-05-07T14:22:13;2.20;;;1.40;;
68353;SDS011;55274;43.060;25.618;2023-05-07T14:24:40;3.25;;;1.58;;
68353;SDS011;55274;43.060;25.618;2023-05-07T14:27:06;1.58;;;1.35;;
68353;SDS011;55274;43.060;25.618;2023-05-07T14:29:32;4.15;;;1.75;;
68353;SDS011;55274;43.060;25.618;2023-05-07T14:31:58;3.63;;;1.90;;
68353;SDS011;55274;43.060;25.618;2023-05-07T14:34:23;2.80;;;1.70;;
68353;SDS011;55274;43.060;25.618;2023-05-07T14:36:49;2.40;;;1.50;;
68353;SDS011;55274;43.060;25.618;2023-05-07T14:39:15;5.97;;;1.73;;
68353;SDS011;55274;43.060;25.618;2023-05-07T14:41:40;11.75;;;1.65;;
68353;SDS011;55274;43.060;25.618;2023-05-07T14:44:06;5.93;;;1.42;;
68353;SDS011;55274;43.060;25.618;2023-05-07T14:46:32;2.95;;;1.45;;
68353;SDS011;55274;43.060;25.618;2023-05-07T14:48:58;4.85;;;1.65;;
68353;SDS011;55274;43.060;25.618;2023-05-07T14:51:23;2.95;;;1.67;;